createdAt,value
2019-05-20T00:00:59.360Z,99.90
2019-05-20T00:03:33.008Z,99.90
2019-05-20T00:06:06.461Z,99.90
2019-05-20T00:08:40.011Z,99.90
2019-05-20T00:11:13.574Z,99.90
2019-05-20T00:13:48.187Z,99.90
2019-05-20T00:16:21.910Z,99.90
2019-05-20T00:19:03.134Z,99.90
2019-05-20T00:21:39.818Z,99.90
2019-05-20T00:24:15.717Z,99.90
2019-05-20T00:26:50.072Z,99.90
2019-05-20T00:29:23.805Z,99.90
2019-05-20T00:31:57.573Z,99.90
2019-05-20T00:34:35.264Z,99.90
2019-05-20T00:37:07.693Z,99.90
2019-05-20T00:39:41.521Z,99.90
2019-05-20T00:42:16.581Z,99.90
2019-05-20T00:45:05.110Z,99.90
2019-05-20T00:48:13.936Z,99.90
2019-05-20T00:50:49.507Z,99.90
2019-05-20T00:53:23.372Z,99.90
2019-05-20T00:55:57.551Z,99.90
2019-05-20T00:58:31.368Z,99.90
2019-05-20T01:01:05.577Z,99.90
2019-05-20T01:03:39.740Z,99.90
2019-05-20T01:06:18.844Z,99.90
2019-05-20T01:08:52.687Z,99.90
2019-05-20T01:11:26.690Z,99.90
2019-05-20T01:14:00.835Z,99.90
2019-05-20T01:16:38.902Z,99.90
2019-05-20T01:19:12.695Z,99.90
2019-05-20T01:21:46.575Z,99.90
2019-05-20T01:24:19.753Z,99.90
2019-05-20T01:26:54.452Z,99.90
2019-05-20T01:29:28.842Z,99.90
2019-05-20T01:32:07.816Z,99.90
2019-05-20T01:34:41.890Z,99.90
2019-05-20T01:37:14.983Z,99.90
2019-05-20T01:39:48.879Z,99.90
2019-05-20T01:42:27.215Z,99.90
2019-05-20T01:45:03.602Z,99.90
2019-05-20T01:47:37.473Z,99.90
2019-05-20T01:50:13.339Z,99.90
2019-05-20T01:52:46.843Z,99.90
2019-05-20T01:55:20.901Z,99.90
2019-05-20T01:57:53.893Z,99.90
2019-05-20T02:00:27.237Z,99.90
2019-05-20T02:03:02.492Z,99.90
2019-05-20T02:05:38.236Z,99.90
2019-05-20T02:08:18.080Z,99.90
2019-05-20T02:10:56.129Z,99.90
2019-05-20T02:13:49.055Z,99.90
2019-05-20T02:16:23.231Z,99.90
2019-05-20T02:19:00.122Z,99.90
2019-05-20T02:21:33.086Z,99.90
2019-05-20T02:24:06.247Z,99.90
2019-05-20T02:26:40.889Z,99.90
2019-05-20T02:29:16.395Z,99.90
2019-05-20T02:31:50.295Z,99.90
2019-05-20T02:34:24.459Z,99.90
2019-05-20T02:37:00.723Z,99.90
2019-05-20T02:39:35.258Z,99.90
2019-05-20T02:42:09.822Z,99.90
2019-05-20T02:44:49.593Z,99.90
2019-05-20T02:47:23.247Z,99.90
2019-05-20T02:49:56.800Z,99.90
2019-05-20T02:52:30.848Z,99.90
2019-05-20T02:55:08.262Z,99.90
2019-05-20T02:57:42.330Z,99.90
2019-05-20T03:00:17.527Z,99.90
2019-05-20T03:02:51.507Z,99.90
2019-05-20T03:05:25.150Z,99.90
2019-05-20T03:07:58.925Z,99.90
2019-05-20T03:10:32.624Z,99.90
2019-05-20T03:13:05.999Z,99.90
2019-05-20T03:15:39.591Z,99.90
2019-05-20T03:18:13.172Z,99.90
2019-05-20T03:20:49.612Z,99.90
2019-05-20T03:23:23.729Z,99.90
2019-05-20T03:26:00.177Z,99.90
2019-05-20T03:28:33.962Z,99.90
2019-05-20T03:31:08.409Z,99.90
2019-05-20T03:33:42.137Z,99.90
2019-05-20T03:36:15.268Z,99.90
2019-05-20T03:38:50.088Z,99.90
2019-05-20T03:41:23.488Z,99.90
2019-05-20T03:44:04.107Z,99.90
2019-05-20T03:46:39.813Z,99.90
2019-05-20T03:49:13.634Z,99.90
2019-05-20T03:51:46.230Z,99.90
2019-05-20T03:54:19.605Z,99.90
2019-05-20T03:56:53.240Z,99.90
2019-05-20T03:59:25.854Z,99.90
2019-05-20T04:02:00.887Z,99.90
2019-05-20T04:04:36.450Z,99.90
2019-05-20T04:07:10.011Z,99.90
2019-05-20T04:09:46.036Z,99.90
2019-05-20T04:12:19.622Z,99.90
2019-05-20T04:14:56.026Z,99.90
2019-05-20T04:17:34.108Z,99.90
2019-05-20T04:20:08.709Z,99.90
2019-05-20T04:22:43.827Z,99.90
2019-05-20T04:25:17.636Z,99.90
2019-05-20T04:27:52.662Z,99.90
2019-05-20T04:30:27.549Z,99.90
2019-05-20T04:33:01.233Z,99.90
2019-05-20T04:35:35.036Z,99.90
2019-05-20T04:38:08.398Z,99.90
2019-05-20T04:40:42.179Z,99.90
2019-05-20T04:43:17.761Z,99.90
2019-05-20T04:45:51.903Z,99.90
2019-05-20T04:48:28.090Z,99.90
2019-05-20T04:51:02.487Z,99.90
2019-05-20T04:53:36.056Z,99.90
2019-05-20T04:56:10.090Z,99.90
2019-05-20T04:58:44.027Z,99.90
2019-05-20T05:05:11.657Z,99.90
2019-05-20T05:07:45.579Z,99.90
2019-05-20T05:10:24.696Z,99.90
2019-05-20T05:12:59.051Z,99.90
2019-05-20T05:15:37.298Z,99.90
2019-05-20T05:18:11.734Z,99.90
2019-05-20T05:20:45.555Z,99.90
2019-05-20T05:23:22.167Z,99.90
2019-05-20T05:25:56.809Z,99.90
2019-05-20T05:28:30.597Z,99.90
2019-05-20T05:31:05.003Z,99.90
2019-05-20T05:33:39.259Z,99.90
2019-05-20T05:36:13.099Z,99.90
2019-05-20T05:38:46.976Z,99.90
2019-05-20T05:41:20.803Z,99.90
2019-05-20T05:44:12.408Z,99.90
2019-05-20T05:46:47.079Z,99.90
2019-05-20T05:49:22.493Z,99.90
2019-05-20T05:51:56.007Z,99.90
2019-05-20T05:54:42.359Z,99.90
2019-05-20T05:57:20.007Z,99.90
2019-05-20T05:59:54.456Z,99.90
2019-05-20T06:02:27.737Z,99.90
2019-05-20T06:05:01.541Z,99.90
2019-05-20T06:07:35.791Z,99.90
2019-05-20T06:10:10.289Z,99.90
2019-05-20T06:12:45.484Z,99.90
2019-05-20T06:15:25.276Z,99.90
2019-05-20T06:18:05.687Z,99.90
2019-05-20T06:20:49.026Z,99.90
2019-05-20T06:23:32.537Z,99.90
2019-05-20T06:26:07.589Z,99.90
2019-05-20T06:28:41.571Z,99.90
2019-05-20T06:31:14.757Z,99.90
2019-05-20T06:33:50.625Z,99.90
2019-05-20T06:36:27.147Z,99.90
2019-05-20T06:39:20.608Z,99.90
2019-05-20T06:41:54.782Z,99.90
2019-05-20T06:44:51.695Z,99.90
2019-05-20T06:47:13.112Z,99.90
2019-05-20T06:49:54.305Z,99.90
2019-05-20T06:52:43.321Z,99.90
2019-05-20T06:55:16.308Z,99.90
2019-05-20T06:58:07.879Z,99.90
2019-05-20T07:00:41.973Z,99.90
2019-05-20T07:03:16.868Z,99.90
2019-05-20T07:06:06.409Z,99.90
2019-05-20T07:08:40.619Z,99.90
2019-05-20T07:11:18.761Z,99.90
2019-05-20T07:14:17.732Z,99.90
2019-05-20T07:16:58.325Z,99.90
2019-05-20T07:19:34.999Z,99.90
2019-05-20T07:22:09.239Z,99.90
2019-05-20T07:24:43.141Z,99.90
2019-05-20T07:27:33.392Z,99.90
2019-05-20T07:30:09.680Z,99.90
2019-05-20T07:32:53.705Z,99.90
2019-05-20T07:35:33.564Z,99.90
2019-05-20T07:38:26.501Z,99.90
2019-05-20T07:41:12.120Z,99.90
2019-05-20T07:44:10.609Z,99.90
2019-05-20T07:46:45.447Z,99.90
2019-05-20T07:49:31.207Z,99.90
2019-05-20T07:52:11.361Z,99.90
2019-05-20T07:54:46.709Z,99.90
2019-05-20T07:57:30.915Z,99.90
2019-05-20T08:00:06.112Z,99.90
2019-05-20T08:02:42.640Z,99.90
2019-05-20T08:09:30.011Z,99.90
2019-05-20T08:16:12.972Z,99.90
2019-05-20T08:18:58.151Z,99.90
2019-05-20T08:21:32.679Z,99.90
2019-05-20T08:24:33.965Z,99.90
2019-05-20T08:27:06.447Z,99.90
2019-05-20T08:29:45.429Z,99.90
2019-05-20T08:32:37.344Z,99.90
2019-05-20T08:35:43.228Z,99.70
2019-05-20T08:42:13.750Z,99.90
2019-05-20T08:45:03.702Z,99.90
2019-05-20T08:47:59.290Z,99.90
2019-05-20T08:50:32.723Z,99.90
2019-05-20T08:53:07.204Z,99.70
2019-05-20T08:55:41.111Z,99.70
2019-05-20T08:58:14.858Z,99.50
2019-05-20T09:00:49.167Z,99.60
2019-05-20T09:03:22.585Z,99.60
2019-05-20T09:06:20.622Z,99.60
2019-05-20T09:08:55.279Z,99.60
2019-05-20T09:11:35.892Z,99.00
2019-05-20T09:14:11.565Z,98.40
2019-05-20T09:16:52.551Z,98.10
2019-05-20T09:19:40.365Z,98.00
2019-05-20T09:22:15.525Z,97.70
2019-05-20T09:25:03.053Z,98.10
2019-05-20T09:27:36.243Z,97.90
2019-05-20T09:30:11.189Z,97.80
2019-05-20T09:33:20.538Z,97.00
2019-05-20T09:35:59.615Z,97.30
2019-05-20T09:38:36.893Z,96.80
2019-05-20T09:41:10.725Z,96.90
2019-05-20T09:44:38.287Z,96.50
2019-05-20T09:47:15.783Z,96.70
2019-05-20T09:49:56.238Z,97.00
2019-05-20T09:52:29.645Z,96.90
2019-05-20T09:55:06.849Z,96.30
2019-05-20T09:57:57.949Z,96.30
2019-05-20T10:01:06.679Z,96.40
2019-05-20T10:03:50.813Z,96.60
2019-05-20T10:06:35.193Z,96.30
2019-05-20T10:09:38.072Z,96.00
2019-05-20T10:12:12.265Z,96.40
2019-05-20T10:14:56.028Z,96.20
2019-05-20T10:17:38.088Z,96.80
2019-05-20T10:20:21.686Z,96.70
2019-05-20T10:23:23.582Z,96.60
2019-05-20T10:26:03.135Z,96.70
2019-05-20T10:28:36.124Z,97.00
2019-05-20T10:31:16.362Z,97.10
2019-05-20T10:34:19.010Z,97.10
2019-05-20T10:36:53.238Z,96.90
2019-05-20T10:39:29.781Z,97.00
2019-05-20T10:42:03.567Z,97.60
2019-05-20T10:44:41.987Z,97.30
2019-05-20T10:47:52.128Z,97.10
2019-05-20T10:50:31.147Z,96.80
2019-05-20T10:53:08.975Z,96.80
2019-05-20T10:55:50.780Z,96.50
2019-05-20T10:58:24.703Z,96.50
2019-05-20T11:01:10.643Z,96.70
2019-05-20T11:04:21.333Z,96.50
2019-05-20T11:06:57.399Z,97.10
2019-05-20T11:09:41.145Z,97.60
2019-05-20T11:12:19.066Z,97.60
2019-05-20T11:14:54.857Z,97.90
2019-05-20T11:17:29.510Z,97.70
2019-05-20T11:24:05.670Z,98.10
2019-05-20T11:26:41.543Z,98.10
2019-05-20T11:29:16.315Z,98.70
2019-05-20T11:31:49.383Z,98.80
2019-05-20T11:39:33.197Z,98.50
2019-05-20T11:42:23.443Z,99.00
2019-05-20T11:44:58.511Z,97.90
2019-05-20T11:48:05.114Z,97.80
2019-05-20T11:50:57.134Z,97.60
2019-05-20T11:53:39.467Z,98.00
2019-05-20T11:56:21.238Z,97.80
2019-05-20T11:58:55.338Z,97.80
2019-05-20T12:01:40.711Z,97.50
2019-05-20T12:04:31.709Z,97.50
2019-05-20T12:07:20.364Z,97.50
2019-05-20T12:10:45.933Z,97.90
2019-05-20T12:13:46.656Z,97.80
2019-05-20T12:16:28.810Z,96.80
2019-05-20T12:19:21.972Z,96.90
2019-05-20T12:21:55.947Z,96.70
2019-05-20T12:24:30.612Z,96.70
2019-05-20T12:27:09.575Z,97.30
2019-05-20T12:29:55.524Z,97.00
2019-05-20T12:32:28.391Z,97.50
2019-05-20T12:35:07.176Z,97.40
2019-05-20T12:37:48.917Z,96.50
2019-05-20T12:40:33.869Z,96.10
2019-05-20T12:43:07.853Z,96.30
2019-05-20T12:46:44.967Z,96.30
2019-05-20T12:49:41.897Z,96.30
2019-05-20T12:52:18.175Z,96.00
2019-05-20T12:55:06.958Z,96.20
2019-05-20T12:57:32.000Z,96.20
2019-05-20T13:00:05.655Z,96.20
2019-05-20T13:03:02.635Z,95.80
2019-05-20T13:05:45.411Z,96.00
2019-05-20T13:08:26.280Z,95.90
2019-05-20T13:11:28.357Z,96.10
2019-05-20T13:14:04.559Z,95.90
2019-05-20T13:16:38.864Z,95.90
2019-05-20T13:19:13.283Z,95.00
2019-05-20T13:21:46.891Z,95.00
2019-05-20T13:24:21.054Z,95.00
2019-05-20T13:26:55.785Z,95.30
2019-05-20T13:29:28.922Z,94.90
2019-05-20T13:32:05.924Z,94.10
2019-05-20T13:34:43.525Z,93.80
2019-05-20T13:37:19.565Z,93.10
2019-05-20T13:40:20.461Z,93.60
2019-05-20T13:43:01.425Z,94.20
2019-05-20T13:45:38.597Z,94.00
2019-05-20T13:48:26.651Z,93.80
2019-05-20T13:51:07.732Z,93.90
2019-05-20T13:54:03.974Z,93.40
2019-05-20T13:57:03.206Z,93.70
2019-05-20T13:59:38.519Z,93.60
2019-05-20T14:02:30.227Z,93.70
2019-05-20T14:05:04.483Z,93.30
2019-05-20T14:07:40.364Z,93.10
2019-05-20T14:11:02.932Z,93.10
2019-05-20T14:13:28.591Z,93.00
2019-05-20T14:16:03.035Z,92.90
2019-05-20T14:18:36.555Z,93.20
2019-05-20T14:21:16.352Z,93.30
2019-05-20T14:23:51.597Z,93.30
2019-05-20T14:26:34.530Z,94.20
2019-05-20T14:29:09.071Z,93.40
2019-05-20T14:31:45.355Z,93.30
2019-05-20T14:34:23.133Z,93.50
2019-05-20T14:37:01.453Z,93.80
2019-05-20T14:39:42.829Z,93.40
2019-05-20T14:43:11.336Z,93.70
2019-05-20T14:45:46.079Z,93.50
2019-05-20T14:48:21.467Z,93.50
2019-05-20T14:51:17.764Z,93.00
2019-05-20T14:53:56.658Z,93.00
2019-05-20T14:56:30.175Z,92.40
2019-05-20T14:59:03.212Z,93.10
2019-05-20T15:01:38.053Z,93.30
2019-05-20T15:04:44.310Z,92.50
2019-05-20T15:07:29.867Z,92.70
2019-05-20T15:09:58.078Z,91.00
2019-05-20T15:12:32.651Z,91.50
2019-05-20T15:15:09.638Z,90.80
2019-05-20T15:17:45.023Z,90.10
2019-05-20T15:20:21.576Z,90.00
2019-05-20T15:22:55.893Z,90.00
2019-05-20T15:25:31.605Z,89.20
2019-05-20T15:28:09.055Z,88.20
2019-05-20T15:31:08.379Z,89.30
2019-05-20T15:37:25.702Z,90.30
2019-05-20T15:40:02.733Z,90.10
2019-05-20T15:42:38.239Z,90.70
2019-05-20T15:45:22.440Z,91.10
2019-05-20T15:47:56.897Z,91.20
2019-05-20T15:50:30.932Z,91.90
2019-05-20T15:53:12.833Z,92.10
2019-05-20T15:55:57.477Z,92.50
2019-05-20T15:58:32.067Z,91.90
2019-05-20T16:01:10.687Z,91.50
2019-05-20T16:03:52.799Z,91.90
2019-05-20T16:06:36.409Z,92.30
2019-05-20T16:09:24.158Z,92.00
2019-05-20T16:11:57.945Z,92.10
2019-05-20T16:14:39.344Z,91.80
2019-05-20T16:17:15.075Z,92.10
2019-05-20T16:19:48.732Z,90.40
2019-05-20T16:22:22.961Z,90.80
2019-05-20T16:25:04.370Z,90.60
2019-05-20T16:27:36.757Z,90.40
2019-05-20T16:30:17.282Z,88.00
2019-05-20T16:32:51.046Z,88.00
2019-05-20T16:35:26.086Z,89.20
2019-05-20T16:38:00.545Z,89.10
2019-05-20T16:40:37.790Z,87.80
2019-05-20T16:43:18.159Z,88.40
2019-05-20T16:45:53.763Z,90.20
2019-05-20T16:48:28.293Z,90.50
2019-05-20T16:51:03.110Z,91.20
2019-05-20T16:53:36.688Z,91.70
2019-05-20T16:56:31.333Z,92.10
2019-05-20T16:59:04.747Z,91.70
2019-05-20T17:01:46.275Z,92.20
2019-05-20T17:04:16.295Z,92.10
2019-05-20T17:06:51.147Z,92.30
2019-05-20T17:09:26.717Z,90.60
2019-05-20T17:12:08.141Z,91.00
2019-05-20T17:14:42.679Z,91.10
2019-05-20T17:17:19.963Z,91.20
2019-05-20T17:19:52.831Z,91.50
2019-05-20T17:22:25.773Z,91.50
2019-05-20T17:25:11.133Z,91.60
2019-05-20T17:27:48.909Z,91.80
2019-05-20T17:30:43.029Z,91.50
2019-05-20T17:33:07.209Z,91.70
2019-05-20T17:35:40.893Z,91.80
2019-05-20T17:38:32.685Z,91.90
2019-05-20T17:41:11.244Z,91.40
2019-05-20T17:43:44.211Z,91.70
2019-05-20T17:46:19.854Z,91.90
2019-05-20T17:48:52.861Z,92.30
2019-05-20T17:51:27.581Z,92.00
2019-05-20T17:54:02.665Z,91.80
2019-05-20T17:56:36.664Z,91.80
2019-05-20T17:59:13.208Z,91.70
2019-05-20T18:01:53.384Z,91.50
2019-05-20T18:04:27.813Z,91.70
2019-05-20T18:07:18.127Z,91.90
2019-05-20T18:09:52.448Z,91.90
2019-05-20T18:12:26.601Z,91.80
2019-05-20T18:15:02.447Z,92.10
2019-05-20T18:17:43.873Z,92.40
2019-05-20T18:20:18.487Z,92.60
2019-05-20T18:22:54.683Z,93.20
2019-05-20T18:25:29.021Z,93.40
2019-05-20T18:28:02.405Z,93.80
2019-05-20T18:30:34.653Z,94.20
2019-05-20T18:33:11.481Z,95.50
2019-05-20T18:35:46.425Z,96.50
2019-05-20T18:38:21.825Z,97.90
2019-05-20T18:40:56.730Z,99.40
2019-05-20T18:43:31.070Z,99.90
2019-05-20T18:46:06.599Z,99.90
2019-05-20T18:48:48.671Z,99.90
2019-05-20T18:51:22.990Z,99.90
2019-05-20T18:53:57.704Z,99.90
2019-05-20T18:56:38.789Z,99.90
2019-05-20T18:59:13.251Z,99.90
2019-05-20T19:02:05.876Z,99.90
2019-05-20T19:05:20.590Z,99.90
2019-05-20T19:08:00.239Z,99.90
2019-05-20T19:10:47.778Z,99.90
2019-05-20T19:13:36.101Z,99.90
2019-05-20T19:16:32.838Z,99.90
2019-05-20T19:22:46.216Z,99.90
2019-05-20T19:25:37.919Z,99.90
2019-05-20T19:28:14.734Z,99.90
2019-05-20T19:30:49.144Z,99.90
2019-05-20T19:33:28.851Z,99.90
2019-05-20T19:36:05.617Z,99.90
2019-05-20T19:38:50.008Z,99.90
2019-05-20T19:41:32.564Z,99.90
2019-05-20T19:44:27.027Z,99.90
2019-05-20T19:47:29.740Z,99.90
2019-05-20T19:50:07.970Z,99.90
2019-05-20T19:52:49.541Z,99.90
2019-05-20T19:55:23.088Z,99.90
2019-05-20T19:58:07.880Z,99.90
2019-05-20T20:01:10.811Z,99.90
2019-05-20T20:03:56.571Z,99.90
2019-05-20T20:06:32.750Z,99.90
2019-05-20T20:09:14.231Z,99.90
2019-05-20T20:11:50.373Z,99.90
2019-05-20T20:14:31.500Z,99.90
2019-05-20T20:17:13.583Z,99.90
2019-05-20T20:19:50.466Z,99.90
2019-05-20T20:22:29.579Z,99.90
2019-05-20T20:25:07.528Z,99.90
2019-05-20T20:27:42.742Z,99.90
2019-05-20T20:30:27.603Z,99.90
2019-05-20T20:33:17.594Z,99.90
2019-05-20T20:35:52.033Z,99.90
2019-05-20T20:38:26.240Z,99.90
2019-05-20T20:41:01.141Z,99.90
2019-05-20T20:43:36.560Z,99.90
2019-05-20T20:46:10.753Z,99.90
2019-05-20T20:48:44.817Z,99.90
2019-05-20T20:51:21.010Z,99.90
2019-05-20T20:53:59.455Z,99.90
2019-05-20T20:56:39.590Z,99.90
2019-05-20T20:59:14.787Z,99.90
2019-05-20T21:01:59.071Z,99.90
2019-05-20T21:04:56.670Z,99.90
2019-05-20T21:07:37.476Z,99.90
2019-05-20T21:10:14.380Z,99.90
2019-05-20T21:12:49.274Z,99.90
2019-05-20T21:15:26.598Z,99.90
2019-05-20T21:18:04.567Z,99.90
2019-05-20T21:20:38.500Z,99.90
2019-05-20T21:23:12.255Z,99.90
2019-05-20T21:25:53.012Z,99.90
2019-05-20T21:28:29.570Z,99.90
2019-05-20T21:31:03.617Z,99.90
2019-05-20T21:33:43.694Z,99.90
2019-05-20T21:36:20.288Z,99.90
2019-05-20T21:38:56.904Z,99.90
2019-05-20T21:41:31.064Z,99.90
2019-05-20T21:44:12.039Z,99.90
2019-05-20T21:46:46.681Z,99.90
2019-05-20T21:49:26.874Z,99.90
2019-05-20T21:52:02.383Z,99.90
2019-05-20T21:54:47.420Z,99.90
2019-05-20T21:57:22.425Z,99.90
2019-05-20T21:59:57.590Z,99.90
2019-05-20T22:02:31.559Z,99.90
2019-05-20T22:05:41.954Z,99.90
2019-05-20T22:08:32.822Z,99.90
2019-05-20T22:11:05.929Z,99.90
2019-05-20T22:13:43.932Z,99.90
2019-05-20T22:16:24.025Z,99.90
2019-05-20T22:19:02.338Z,99.90
2019-05-20T22:21:52.035Z,99.90
2019-05-20T22:24:30.944Z,99.90
2019-05-20T22:27:09.090Z,99.90
2019-05-20T22:29:47.535Z,99.90
2019-05-20T22:32:22.280Z,99.90
2019-05-20T22:35:01.868Z,99.90
2019-05-20T22:37:41.116Z,99.90
2019-05-20T22:40:16.523Z,99.90
2019-05-20T22:43:01.232Z,99.90
2019-05-20T22:45:39.401Z,99.90
2019-05-20T22:48:14.693Z,99.90
2019-05-20T22:50:56.614Z,99.90
2019-05-20T22:53:42.369Z,99.90
2019-05-20T22:56:19.054Z,99.90
2019-05-20T22:58:53.239Z,99.90
2019-05-20T23:01:30.257Z,99.90
2019-05-20T23:04:09.757Z,99.90
2019-05-20T23:06:41.974Z,99.90
2019-05-20T23:09:28.036Z,99.90
2019-05-20T23:12:03.582Z,99.90
2019-05-20T23:14:42.192Z,99.90
2019-05-20T23:17:25.124Z,99.90
2019-05-20T23:19:58.875Z,99.90
2019-05-20T23:22:34.404Z,99.90
2019-05-20T23:25:11.006Z,99.90
2019-05-20T23:27:54.108Z,99.90
2019-05-20T23:30:35.496Z,99.90
2019-05-20T23:33:12.903Z,99.90
2019-05-20T23:35:48.149Z,99.90
2019-05-20T23:38:33.668Z,99.90
2019-05-20T23:41:58.886Z,99.90
2019-05-20T23:45:11.153Z,99.90
2019-05-20T23:47:52.920Z,99.90
2019-05-20T23:50:59.100Z,99.90
2019-05-20T23:54:00.742Z,99.90
2019-05-20T23:57:05.784Z,99.90
2019-05-20T23:59:38.034Z,99.90
